HSSK 020530Z 19006KT 8000 30/19 Q1010 NOSIG
From batch tds/metars/production/2022/10/2/h05_m49_metars.cache.csv.gz
Observed at (about 2 hours ago)
Identifier HSSK
HSSK 020430Z 16004KT CAVOK 28/18 Q1010 NOSIG
From batch tds/metars/production/2022/10/2/h04_m54_metars.cache.csv.gz
Observed at (about 3 hours ago)
Identifier HSSK
HSSK 020400Z 17004KT CAVOK 28/17 Q1009 NOSIG
From batch tds/metars/production/2022/10/2/h04_m25_metars.cache.csv.gz
Observed at (about 3 hours ago)
Identifier HSSK
HSSK 020300Z 17004KT CAVOK 28/17 Q1009 NOSIG
From batch tds/metars/production/2022/10/2/h03_m55_metars.cache.csv.gz
Observed at (about 4 hours ago)
Identifier HSSK
HSSK 020230Z 16005KT CAVOK 29/18 Q1009 NOSIG
From batch tds/metars/production/2022/10/2/h02_m59_metars.cache.csv.gz
Observed at (about 5 hours ago)
Identifier HSSK
HSSK 020200Z 17004KT CAVOK 29/18 Q1009 NOSIG
From batch tds/metars/production/2022/10/2/h02_m29_metars.cache.csv.gz
Observed at (about 5 hours ago)
Identifier HSSK
HSSK 020030Z 18005KT CAVOK 29/18 Q1009 NOSIG
From batch tds/metars/production/2022/10/2/h01_m29_metars.cache.csv.gz
Observed at (about 7 hours ago)
Identifier HSSK
HSSK 020000Z 19007KT CAVOK 30/18 Q1009 NOSIG
From batch tds/metars/production/2022/10/2/h00_m21_metars.cache.csv.gz
Observed at (about 7 hours ago)
Identifier HSSK
HSSK 012330Z 17005KT CAVOK 30/17 Q1009 NOSIG
From batch tds/metars/production/2022/10/1/h23_m51_metars.cache.csv.gz
Observed at (about 8 hours ago)
Identifier HSSK
HSSK 012300Z 19005KT CAVOK 30/18 Q1009 NOSIG
From batch tds/metars/production/2022/10/1/h23_m23_metars.cache.csv.gz
Observed at (about 8 hours ago)
Identifier HSSK
HSSK 012230Z 19010KT CAVOK 30/17 Q1010 NOSIG
From batch tds/metars/production/2022/10/1/h22_m59_metars.cache.csv.gz
Observed at (about 9 hours ago)
Identifier HSSK
HSSK 012200Z 15008KT CAVOK 31/17 Q1010 NOSIG
From batch tds/metars/production/2022/10/1/h22_m22_metars.cache.csv.gz
Observed at (about 9 hours ago)
Identifier HSSK
HSSK 012130Z 18010KT CAVOK 31/17 Q1010 NOSIG
From batch tds/metars/production/2022/10/1/h21_m52_metars.cache.csv.gz
Observed at (about 10 hours ago)
Identifier HSSK
HSSK 011100Z KT 9999 FEW050 36/20 Q1011 NOSIG
From batch tds/metars/production/2022/10/1/h11_m19_metars.cache.csv.gz
Observed at (about 20 hours ago)
Identifier HSSK
HSSK 010800Z 21011KT CAVOK 32/19 Q1013 NOSIG
From batch tds/metars/production/2022/10/1/h08_m29_metars.cache.csv.gz
Observed at (about 23 hours ago)
Identifier HSSK
HSSK 010700Z 18007KT CAVOK 31/20 Q1013 NOSIG
From batch tds/metars/production/2022/10/1/h07_m29_metars.cache.csv.gz
Observed at (1 day ago)
Identifier HSSK
HSSK 010530Z 16007KT CAVOK 28/21 Q1013 NOSIG
From batch tds/metars/production/2022/10/1/h05_m53_metars.cache.csv.gz
Observed at (1 day ago)
Identifier HSSK
HSSK 010430Z 17009KT CAVOK 27/21 Q1012 NOSIG
From batch tds/metars/production/2022/10/1/h05_m22_metars.cache.csv.gz
Observed at (1 day ago)
Identifier HSSK
HSSK 301600Z 21017KT CAVOK 33/21 Q1007 NOSIG
From batch tds/metars/production/2022/9/30/h16_m29_metars.cache.csv.gz
Observed at (1 day ago)
Identifier HSSK
HSSK 301500Z 19016KT CAVOK 35/19 Q1007 NOSIG
From batch tds/metars/production/2022/9/30/h15_m24_metars.cache.csv.gz
Observed at (1 day ago)
Identifier HSSK
HSSK 301400Z 20012KT CAVOK 36/18 Q1007 NOSIG
From batch tds/metars/production/2022/9/30/h14_m27_metars.cache.csv.gz
Observed at (1 day ago)
Identifier HSSK
HSSK 301230Z 19012KT 9999 FEW050 37/18 Q1007 NOSIG
From batch tds/metars/production/2022/9/30/h12_m59_metars.cache.csv.gz
Observed at (2 days ago)
Identifier HSSK
HSSK 301200Z 20014KT 9999 FEW050 36/19 Q1008 NOSIG
From batch tds/metars/production/2022/9/30/h12_m28_metars.cache.csv.gz
Observed at (2 days ago)
Identifier HSSK
HSSK 301130Z 17014KT 9999 FEW050 36/19 Q1008 NOSIG
From batch tds/metars/production/2022/9/30/h11_m59_metars.cache.csv.gz
Observed at (2 days ago)
Identifier HSSK
HSSK 301030Z 20014KT FEW050 36/20 Q1008 NOSIG
From batch tds/metars/production/2022/9/30/h10_m58_metars.cache.csv.gz
Observed at (2 days ago)
Identifier HSSK
HSSK 300930Z 20014KT CAVOK 36/19 Q1009 NOSIG
From batch tds/metars/production/2022/9/30/h09_m55_metars.cache.csv.gz
Observed at (2 days ago)
Identifier HSSK
HSSK 300900Z 16012KT CAVOK 34/22 Q1010 NOSIG
From batch tds/metars/production/2022/9/30/h09_m28_metars.cache.csv.gz
Observed at (2 days ago)
Identifier HSSK
HSSK 300800Z 19012KT CAVOK 33/21 Q1009 NOSIG
From batch tds/metars/production/2022/9/30/h08_m21_metars.cache.csv.gz
Observed at (2 days ago)
Identifier HSSK
HSSK 300730Z 18012KT CAVOK 32/21 Q1010 NOSIG
From batch tds/metars/production/2022/9/30/h07_m49_metars.cache.csv.gz
Observed at (2 days ago)
Identifier HSSK
HSSK 300700Z 18014KT CAVOK 32/21 Q1009 NOSIG
From batch tds/metars/production/2022/9/30/h07_m29_metars.cache.csv.gz
Observed at (2 days ago)
Identifier HSSK
HSSK 300630Z 20014KT CAVOK 31/22 Q1009 NOSIG
From batch tds/metars/production/2022/9/30/h06_m59_metars.cache.csv.gz
Observed at (2 days ago)
Identifier HSSK
HSSK 300600Z 20008KT CAVOK 30/22 Q1009 NOSIG
From batch tds/metars/production/2022/9/30/h06_m21_metars.cache.csv.gz
Observed at (2 days ago)
Identifier HSSK
HSSK 300530Z 17013KT CAVOK 29/21 Q1009 NOSIG
From batch tds/metars/production/2022/9/30/h05_m55_metars.cache.csv.gz
Observed at (2 days ago)
Identifier HSSK
HSSK 300500Z 18012KT CAVOK 28/21 Q1009 NOSIG
From batch tds/metars/production/2022/9/30/h05_m23_metars.cache.csv.gz
Observed at (2 days ago)
Identifier HSSK
HSSK 300430Z 17014KT CAVOK 28/21 Q1009 NOSIG
From batch tds/metars/production/2022/9/30/h04_m50_metars.cache.csv.gz
Observed at (2 days ago)
Identifier HSSK
HSSK 300400Z 17014KT CAVOK 28/20 Q1008 NOSIG
From batch tds/metars/production/2022/9/30/h04_m20_metars.cache.csv.gz
Observed at (2 days ago)
Identifier HSSK
HSSK 300330Z 16008KT CAVOK 29/19 Q1008 NOSIG
From batch tds/metars/production/2022/9/30/h03_m59_metars.cache.csv.gz
Observed at (2 days ago)
Identifier HSSK
HSSK 300300Z 15005KT CAVOK 30/18 Q1008 NOSIG
From batch tds/metars/production/2022/9/30/h03_m19_metars.cache.csv.gz
Observed at (2 days ago)
Identifier HSSK
HSSK 300230Z 20008KT CAVOK 31/18 Q1007 NOSIG
From batch tds/metars/production/2022/9/30/h02_m52_metars.cache.csv.gz
Observed at (2 days ago)
Identifier HSSK
HSSK 300200Z 20010KT CAVOK 31/18 Q1006 NOSIG
From batch tds/metars/production/2022/9/30/h02_m29_metars.cache.csv.gz
Observed at (2 days ago)
Identifier HSSK
HSSK 300130Z 18008KT CAVOK 31/16 Q1006 NOSIG
From batch tds/metars/production/2022/9/30/h01_m57_metars.cache.csv.gz
Observed at (2 days ago)
Identifier HSSK
HSSK 300100Z 19008KT CAVOK 31/16 Q1006 NOSIG
From batch tds/metars/production/2022/9/30/h01_m27_metars.cache.csv.gz
Observed at (2 days ago)
Identifier HSSK
HSSK 300030Z 19011KT CAVOK 32/17 Q1006 NOSIG
From batch tds/metars/production/2022/9/30/h00_m59_metars.cache.csv.gz
Observed at (2 days ago)
Identifier HSSK
HSSK 300000Z 19008KT CAVOK 31/17 Q1006 NOSIG
From batch tds/metars/production/2022/9/30/h00_m29_metars.cache.csv.gz
Observed at (2 days ago)
Identifier HSSK
HSSK 292330Z 18006KT CAVOK 31/16 Q1007 NOSIG
From batch tds/metars/production/2022/9/29/h23_m52_metars.cache.csv.gz
Observed at (2 days ago)
Identifier HSSK
HSSK 292300Z 18003KT CAVOK 31/16 Q1007 NOSIG
From batch tds/metars/production/2022/9/29/h23_m29_metars.cache.csv.gz
Observed at (2 days ago)
Identifier HSSK
HSSK 292230Z 21004KT CAVOK 32/13 Q1007 NOSIG
From batch tds/metars/production/2022/9/29/h22_m57_metars.cache.csv.gz
Observed at (2 days ago)
Identifier HSSK
HSSK 292200Z 18004KT CAVOK 32/12 Q1007 NOSIG
From batch tds/metars/production/2022/9/29/h22_m28_metars.cache.csv.gz
Observed at (2 days ago)
Identifier HSSK
HSSK 292130Z 16006KT CAVOK 33/13 Q1007 NOSIG
From batch tds/metars/production/2022/9/29/h21_m51_metars.cache.csv.gz
Observed at (2 days ago)
Identifier HSSK
talk